Portada
METAR-TAF:

METAR-TAF

Aeropuertos :

Wonderboom Airport

Pretoria, Sudáfrica

latitud: 25-39S, longitud: 028-13E, altitud: 1248 m

Observación

El informe se hizo hace 43 minutos, a las 05:00 UTC
Viento 1 kt del este
Temperatura 0°C
Humedad 86%
Presión 1025 hPa

METAR: FAWB 280500Z AUTO 08001KT //// // ////// 00/M02 Q1025

Hora: 07:43 (05:43 UTC)

Pronóstico

El informe se hizo hace 2 horas y 6 minutos, a las 03:37 UTC
Pronóstico válido del 28 a las 04 UTC al 28 a las 15 UTC
Viento 3 kt con dirección variable
Visibilidad 10 km o más
sin nubes por debajo de 1500 m y sin presencia de cumulonimbus.

TAF: FAWB 280337Z 2804/2815 VRB03KT CAVOK TX18/2812Z TN03/2804Z

Observaciones y pronósticos meteorológicos de más de 4000 aeropuertos (mensajes METAR y TAF).

Los puntos amarillos y rojos representan las estaciones disponibles.

Ponga el ratón en el punto deseado para ver el nombre de la estación.

Haga clic para ver las observaciones y los pronósticos meteorológicos.

Para cambiar el mapa : haga clic en los botones verdes con una cruz de color negro para hacer un zoom, en el botón verde con un guión para alejar o en las flechas verdes para mapas adyacentes.


METAR-TAF: